WTB35Y MYNN-MTPP
Flight info
| Callsign | WTB35Y |
|---|---|
| Flight time | 1h 23m |
| Altitude | 37000 |
| Route | BOSAR DCT KNSLY DCT JOSES/N0381F230 A315 SAVAR SAVAR1C |
| Aircraft | A319/M-SDE3FGHIRWY/LB1 |
Departure
| Time | 2026-04-20 18:44 |
|---|---|
| Airport | Lynden Pindling International Airport (MYNN) |
Arrival
| Time | 2026-04-20 20:07 |
|---|---|
| Airport | Toussaint Louverture International Airport (MTPP) |
| Time | Latitude | Longitude | Altitude | Speed | Heading |
|---|---|---|---|---|---|
| 2026-04-20 18:33 | 25.05004 | -77.46718 | 14 ft | 0 kts | 294° |
| 2026-04-20 18:34 | 25.05015 | -77.46744 | 13 ft | 15 kts | 291° |
| 2026-04-20 18:34 | 25.05003 | -77.46822 | 12 ft | 0 kts | 248° |
| 2026-04-20 18:34 | 25.05000 | -77.46829 | 12 ft | 4 kts | 247° |
| 2026-04-20 18:34 | 25.04984 | -77.46871 | 12 ft | 8 kts | 247° |
| 2026-04-20 18:35 | 25.04932 | -77.46925 | 12 ft | 15 kts | 203° |
| 2026-04-20 18:35 | 25.04925 | -77.47016 | 12 ft | 16 kts | 317° |
| 2026-04-20 18:35 | 25.05014 | -77.47113 | 14 ft | 20 kts | 314° |
| 2026-04-20 18:35 | 25.05108 | -77.47221 | 13 ft | 19 kts | 315° |
| 2026-04-20 18:36 | 25.05173 | -77.47293 | 14 ft | 8 kts | 315° |
| 2026-04-20 18:36 | 25.05187 | -77.47312 | 12 ft | 0 kts | 309° |
| 2026-04-20 18:36 | 25.05191 | -77.47318 | 12 ft | 2 kts | 309° |
| 2026-04-20 18:36 | 25.05193 | -77.47320 | 12 ft | 0 kts | 309° |
| 2026-04-20 18:37 | 25.05194 | -77.47321 | 12 ft | 2 kts | 309° |
| 2026-04-20 18:37 | 25.05221 | -77.47388 | 12 ft | 0 kts | 275° |
| 2026-04-20 18:38 | 25.05221 | -77.47389 | 12 ft | 1 kts | 275° |
| 2026-04-20 18:38 | 25.05221 | -77.47393 | 12 ft | 0 kts | 273° |
| 2026-04-20 18:39 | 25.05217 | -77.47434 | 13 ft | 11 kts | 255° |
| 2026-04-20 18:39 | 25.05216 | -77.47440 | 13 ft | 0 kts | 254° |
| 2026-04-20 18:41 | 25.05213 | -77.47448 | 13 ft | 6 kts | 250° |
| 2026-04-20 18:41 | 25.05148 | -77.47516 | 12 ft | 15 kts | 154° |
| 2026-04-20 18:41 | 25.05106 | -77.47479 | 13 ft | 0 kts | 140° |
| 2026-04-20 18:43 | 25.05088 | -77.47457 | 11 ft | 24 kts | 133° |
| 2026-04-20 18:43 | 25.04769 | -77.47093 | 13 ft | 105 kts | 134° |
| 2026-04-20 18:43 | 25.04084 | -77.46332 | 16 ft | 171 kts | 133° |
| 2026-04-20 18:43 | 25.03187 | -77.45377 | 494 ft | 187 kts | 134° |
| 2026-04-20 18:44 | 25.02260 | -77.44376 | 1382 ft | 185 kts | 134° |
| 2026-04-20 18:44 | 25.01360 | -77.43369 | 2147 ft | 186 kts | 133° |
| 2026-04-20 18:44 | 25.00412 | -77.42303 | 2450 ft | 206 kts | 133° |
| 2026-04-20 18:44 | 24.99355 | -77.41084 | 2739 ft | 232 kts | 129° |
| 2026-04-20 18:45 | 24.98287 | -77.39636 | 3173 ft | 256 kts | 126° |
| 2026-04-20 18:45 | 24.97240 | -77.37988 | 3888 ft | 266 kts | 123° |
| 2026-04-20 18:45 | 24.96199 | -77.36267 | 4784 ft | 271 kts | 123° |
| 2026-04-20 18:45 | 24.95146 | -77.34517 | 5635 ft | 277 kts | 123° |
| 2026-04-20 18:46 | 24.94429 | -77.33338 | 6201 ft | 280 kts | 123° |
| 2026-04-20 18:46 | 24.93329 | -77.31552 | 7042 ft | 284 kts | 124° |
| 2026-04-20 18:46 | 24.91825 | -77.29142 | 8114 ft | 290 kts | 124° |
| 2026-04-20 18:46 | 24.90667 | -77.27305 | 8922 ft | 295 kts | 125° |
| 2026-04-20 18:47 | 24.89482 | -77.25436 | 9716 ft | 299 kts | 125° |
| 2026-04-20 18:47 | 24.88671 | -77.24161 | 10222 ft | 303 kts | 125° |
| 2026-04-20 18:47 | 24.87417 | -77.22195 | 10511 ft | 325 kts | 125° |
| 2026-04-20 18:47 | 24.86708 | -77.21087 | 10640 ft | 336 kts | 126° |
| 2026-04-20 18:48 | 24.85493 | -77.19181 | 11081 ft | 345 kts | 126° |
| 2026-04-20 18:48 | 24.84128 | -77.17034 | 11681 ft | 351 kts | 126° |
| 2026-04-20 18:48 | 24.82715 | -77.14812 | 12320 ft | 356 kts | 126° |
| 2026-04-20 18:48 | 24.81578 | -77.13023 | 12820 ft | 360 kts | 126° |
| 2026-04-20 18:49 | 24.80155 | -77.10783 | 13332 ft | 365 kts | 126° |
| 2026-04-20 18:49 | 24.78695 | -77.08480 | 13945 ft | 369 kts | 126° |
| 2026-04-20 18:49 | 24.77213 | -77.06151 | 14483 ft | 373 kts | 127° |
| 2026-04-20 18:49 | 24.75717 | -77.03806 | 15030 ft | 377 kts | 127° |
| 2026-04-20 18:50 | 24.74200 | -77.01430 | 15573 ft | 380 kts | 127° |
| 2026-04-20 18:50 | 24.72667 | -76.99029 | 16114 ft | 384 kts | 127° |
| 2026-04-20 18:50 | 24.71134 | -76.96628 | 16655 ft | 387 kts | 127° |
| 2026-04-20 18:50 | 24.69576 | -76.94192 | 17200 ft | 391 kts | 127° |
| 2026-04-20 18:51 | 24.68008 | -76.91743 | 17741 ft | 394 kts | 127° |
| 2026-04-20 18:51 | 24.66418 | -76.89258 | 18272 ft | 398 kts | 127° |
| 2026-04-20 18:51 | 24.64811 | -76.86751 | 18740 ft | 402 kts | 128° |
| 2026-04-20 18:51 | 24.62988 | -76.84433 | 19191 ft | 402 kts | 139° |
| 2026-04-20 18:52 | 24.60856 | -76.82441 | 19647 ft | 404 kts | 144° |
| 2026-04-20 18:52 | 24.58665 | -76.80490 | 20109 ft | 407 kts | 144° |
| 2026-04-20 18:52 | 24.56453 | -76.78520 | 20565 ft | 411 kts | 144° |
| 2026-04-20 18:52 | 24.54218 | -76.76529 | 21017 ft | 415 kts | 144° |
| 2026-04-20 18:53 | 24.51997 | -76.74546 | 21452 ft | 418 kts | 144° |
| 2026-04-20 18:53 | 24.49728 | -76.72517 | 21887 ft | 422 kts | 144° |
| 2026-04-20 18:53 | 24.47442 | -76.70472 | 22316 ft | 426 kts | 144° |
| 2026-04-20 18:53 | 24.45132 | -76.68410 | 22745 ft | 429 kts | 144° |
| 2026-04-20 18:54 | 24.42804 | -76.66339 | 23159 ft | 433 kts | 144° |
| 2026-04-20 18:54 | 24.40444 | -76.64240 | 23577 ft | 436 kts | 144° |
| 2026-04-20 18:54 | 24.38079 | -76.62136 | 23941 ft | 440 kts | 144° |
| 2026-04-20 18:54 | 24.35699 | -76.60018 | 24290 ft | 443 kts | 144° |
| 2026-04-20 18:55 | 24.33299 | -76.57882 | 24647 ft | 445 kts | 144° |
| 2026-04-20 18:55 | 24.30888 | -76.55734 | 25002 ft | 448 kts | 144° |
| 2026-04-20 18:55 | 24.28486 | -76.53597 | 25354 ft | 451 kts | 144° |
| 2026-04-20 18:55 | 24.26045 | -76.51428 | 25706 ft | 453 kts | 144° |
| 2026-04-20 18:56 | 24.23557 | -76.49217 | 26055 ft | 456 kts | 144° |
| 2026-04-20 18:56 | 24.21116 | -76.47048 | 26395 ft | 459 kts | 144° |
| 2026-04-20 18:56 | 24.18630 | -76.44840 | 26735 ft | 461 kts | 144° |
| 2026-04-20 18:56 | 24.16130 | -76.42622 | 27072 ft | 464 kts | 144° |
| 2026-04-20 18:57 | 24.13611 | -76.40392 | 27407 ft | 466 kts | 144° |
| 2026-04-20 18:57 | 24.11074 | -76.38148 | 27746 ft | 469 kts | 144° |
| 2026-04-20 18:57 | 24.08525 | -76.35894 | 28087 ft | 472 kts | 144° |
| 2026-04-20 18:57 | 24.05969 | -76.33630 | 28416 ft | 474 kts | 144° |
| 2026-04-20 18:58 | 24.03420 | -76.31370 | 28747 ft | 477 kts | 144° |
| 2026-04-20 18:58 | 24.00797 | -76.29052 | 29074 ft | 480 kts | 144° |
| 2026-04-20 18:58 | 23.98189 | -76.26750 | 29391 ft | 482 kts | 144° |
| 2026-04-20 18:58 | 23.95606 | -76.24477 | 29714 ft | 485 kts | 144° |
| 2026-04-20 18:59 | 23.92968 | -76.22157 | 30030 ft | 488 kts | 144° |
| 2026-04-20 18:59 | 23.90318 | -76.19826 | 30305 ft | 490 kts | 144° |
| 2026-04-20 18:59 | 23.87652 | -76.17477 | 30559 ft | 493 kts | 144° |
| 2026-04-20 18:59 | 23.84980 | -76.15120 | 30796 ft | 495 kts | 144° |
| 2026-04-20 19:00 | 23.82299 | -76.12756 | 31016 ft | 497 kts | 144° |
| 2026-04-20 19:00 | 23.79611 | -76.10387 | 31081 ft | 498 kts | 144° |
| 2026-04-20 19:00 | 23.74217 | -76.05646 | 31069 ft | 498 kts | 144° |
| 2026-04-20 19:01 | 23.68831 | -76.00900 | 31079 ft | 497 kts | 144° |
| 2026-04-20 19:01 | 23.63449 | -75.96175 | 31082 ft | 497 kts | 144° |
| 2026-04-20 19:02 | 23.58053 | -75.91451 | 31077 ft | 496 kts | 144° |
| 2026-04-20 19:02 | 23.52659 | -75.86742 | 31080 ft | 497 kts | 144° |
| 2026-04-20 19:03 | 23.47214 | -75.81988 | 31080 ft | 507 kts | 144° |
| 2026-04-20 19:03 | 23.41623 | -75.77108 | 31080 ft | 521 kts | 144° |
| 2026-04-20 19:04 | 23.35943 | -75.72146 | 31077 ft | 526 kts | 144° |
| 2026-04-20 19:04 | 23.30249 | -75.67164 | 31072 ft | 526 kts | 144° |
| 2026-04-20 19:05 | 23.24535 | -75.62191 | 31076 ft | 531 kts | 144° |
| 2026-04-20 19:05 | 23.18725 | -75.57154 | 31074 ft | 532 kts | 144° |
| 2026-04-20 19:06 | 23.12936 | -75.52125 | 31074 ft | 532 kts | 144° |
| 2026-04-20 19:06 | 23.07187 | -75.47135 | 31076 ft | 532 kts | 144° |
| 2026-04-20 19:07 | 23.01397 | -75.42120 | 31067 ft | 532 kts | 144° |
| 2026-04-20 19:07 | 22.95624 | -75.37116 | 31070 ft | 531 kts | 144° |
| 2026-04-20 19:08 | 22.86952 | -75.29619 | 31069 ft | 531 kts | 144° |
| 2026-04-20 19:09 | 22.81173 | -75.24636 | 31068 ft | 531 kts | 144° |
| 2026-04-20 19:09 | 22.75397 | -75.19652 | 31068 ft | 531 kts | 144° |
| 2026-04-20 19:10 | 22.69609 | -75.14671 | 31070 ft | 531 kts | 144° |
| 2026-04-20 19:10 | 22.63818 | -75.09699 | 31065 ft | 531 kts | 144° |
| 2026-04-20 19:11 | 22.58024 | -75.04726 | 31065 ft | 531 kts | 144° |
| 2026-04-20 19:11 | 22.52240 | -74.99756 | 31062 ft | 531 kts | 144° |
| 2026-04-20 19:12 | 22.46458 | -74.94789 | 31062 ft | 530 kts | 144° |
| 2026-04-20 19:12 | 22.40669 | -74.89826 | 31063 ft | 530 kts | 144° |
| 2026-04-20 19:13 | 22.34885 | -74.84883 | 31062 ft | 531 kts | 144° |
| 2026-04-20 19:13 | 22.29080 | -74.79927 | 31060 ft | 531 kts | 144° |
| 2026-04-20 19:14 | 22.23278 | -74.74970 | 31057 ft | 531 kts | 144° |
| 2026-04-20 19:14 | 22.17475 | -74.70022 | 31057 ft | 531 kts | 144° |
| 2026-04-20 19:15 | 22.11676 | -74.65084 | 31057 ft | 531 kts | 144° |
| 2026-04-20 19:15 | 22.05865 | -74.60132 | 31054 ft | 531 kts | 144° |
| 2026-04-20 19:16 | 22.00063 | -74.55193 | 31057 ft | 532 kts | 144° |
| 2026-04-20 19:16 | 21.94247 | -74.50264 | 31054 ft | 532 kts | 144° |
| 2026-04-20 19:17 | 21.88399 | -74.45318 | 31050 ft | 532 kts | 144° |
| 2026-04-20 19:17 | 21.82639 | -74.40442 | 31049 ft | 532 kts | 144° |
| 2026-04-20 19:18 | 21.76825 | -74.35508 | 31052 ft | 532 kts | 144° |
| 2026-04-20 19:18 | 21.71017 | -74.30596 | 31049 ft | 531 kts | 144° |
| 2026-04-20 19:19 | 21.65203 | -74.25689 | 31048 ft | 531 kts | 144° |
| 2026-04-20 19:19 | 21.59354 | -74.20752 | 31043 ft | 531 kts | 144° |
| 2026-04-20 19:20 | 21.53573 | -74.15879 | 31043 ft | 531 kts | 144° |
| 2026-04-20 19:20 | 21.47744 | -74.10972 | 31043 ft | 531 kts | 144° |
| 2026-04-20 19:21 | 21.41924 | -74.06081 | 31038 ft | 531 kts | 144° |
| 2026-04-20 19:21 | 21.36098 | -74.01193 | 31038 ft | 531 kts | 144° |
| 2026-04-20 19:22 | 21.30270 | -73.96306 | 31039 ft | 531 kts | 144° |
| 2026-04-20 19:22 | 21.24398 | -73.91376 | 31035 ft | 532 kts | 144° |
| 2026-04-20 19:23 | 21.18586 | -73.86493 | 31035 ft | 532 kts | 144° |
| 2026-04-20 19:23 | 21.13750 | -73.82446 | 31035 ft | 532 kts | 144° |
| 2026-04-20 19:24 | 21.07898 | -73.77565 | 31032 ft | 532 kts | 144° |
| 2026-04-20 19:24 | 21.02066 | -73.72690 | 31032 ft | 532 kts | 144° |
| 2026-04-20 19:25 | 20.96185 | -73.67897 | 31027 ft | 530 kts | 149° |
| 2026-04-20 19:25 | 20.89746 | -73.64112 | 31028 ft | 528 kts | 155° |
| 2026-04-20 19:26 | 20.83237 | -73.60456 | 31027 ft | 528 kts | 155° |
| 2026-04-20 19:26 | 20.76721 | -73.56795 | 31027 ft | 528 kts | 155° |
| 2026-04-20 19:27 | 20.70229 | -73.53131 | 31027 ft | 528 kts | 155° |
| 2026-04-20 19:27 | 20.63751 | -73.49474 | 31024 ft | 528 kts | 155° |
| 2026-04-20 19:28 | 20.57246 | -73.45818 | 31026 ft | 528 kts | 155° |
| 2026-04-20 19:28 | 20.50747 | -73.42164 | 31024 ft | 528 kts | 155° |
| 2026-04-20 19:29 | 20.44224 | -73.38502 | 31022 ft | 528 kts | 155° |
| 2026-04-20 19:29 | 20.37756 | -73.34874 | 31021 ft | 528 kts | 155° |
| 2026-04-20 19:30 | 20.31259 | -73.31237 | 31002 ft | 511 kts | 155° |
| 2026-04-20 19:30 | 20.28161 | -73.29496 | 31037 ft | 498 kts | 155° |
| 2026-04-20 19:30 | 20.25144 | -73.27801 | 31019 ft | 495 kts | 155° |
| 2026-04-20 19:31 | 20.19072 | -73.24404 | 30787 ft | 481 kts | 155° |
| 2026-04-20 19:31 | 20.16146 | -73.22768 | 30552 ft | 471 kts | 155° |
| 2026-04-20 19:31 | 20.13302 | -73.21180 | 30325 ft | 463 kts | 155° |
| 2026-04-20 19:31 | 20.10480 | -73.19607 | 30093 ft | 454 kts | 155° |
| 2026-04-20 19:32 | 20.07702 | -73.18061 | 29827 ft | 447 kts | 155° |
| 2026-04-20 19:32 | 20.04965 | -73.16535 | 29563 ft | 442 kts | 155° |
| 2026-04-20 19:32 | 20.02246 | -73.15024 | 29295 ft | 438 kts | 155° |
| 2026-04-20 19:32 | 19.99548 | -73.13528 | 29025 ft | 436 kts | 155° |
| 2026-04-20 19:33 | 19.96870 | -73.12042 | 28758 ft | 433 kts | 155° |
| 2026-04-20 19:33 | 19.94209 | -73.10562 | 28499 ft | 431 kts | 155° |
| 2026-04-20 19:33 | 19.91555 | -73.09087 | 28244 ft | 429 kts | 155° |
| 2026-04-20 19:33 | 19.88917 | -73.07619 | 27988 ft | 426 kts | 155° |
| 2026-04-20 19:34 | 19.86299 | -73.06149 | 27741 ft | 424 kts | 154° |
| 2026-04-20 19:34 | 19.83697 | -73.04680 | 27491 ft | 422 kts | 154° |
| 2026-04-20 19:34 | 19.81140 | -73.03234 | 27244 ft | 420 kts | 154° |
| 2026-04-20 19:34 | 19.78561 | -73.01782 | 27000 ft | 417 kts | 154° |
| 2026-04-20 19:35 | 19.76003 | -73.00338 | 26758 ft | 416 kts | 154° |
| 2026-04-20 19:35 | 19.73474 | -72.98856 | 26519 ft | 414 kts | 153° |
| 2026-04-20 19:35 | 19.70987 | -72.97353 | 26278 ft | 412 kts | 152° |
| 2026-04-20 19:35 | 19.68509 | -72.95835 | 26041 ft | 409 kts | 152° |
| 2026-04-20 19:36 | 19.66051 | -72.94333 | 25804 ft | 408 kts | 152° |
| 2026-04-20 19:36 | 19.63592 | -72.92837 | 25559 ft | 406 kts | 152° |
| 2026-04-20 19:36 | 19.61146 | -72.91357 | 25328 ft | 403 kts | 152° |
| 2026-04-20 19:36 | 19.58712 | -72.89894 | 25100 ft | 401 kts | 152° |
| 2026-04-20 19:37 | 19.56288 | -72.88442 | 24870 ft | 399 kts | 152° |
| 2026-04-20 19:37 | 19.53867 | -72.86997 | 24645 ft | 397 kts | 152° |
| 2026-04-20 19:37 | 19.51468 | -72.85563 | 24422 ft | 395 kts | 152° |
| 2026-04-20 19:37 | 19.49079 | -72.84134 | 24200 ft | 393 kts | 152° |
| 2026-04-20 19:38 | 19.46702 | -72.82710 | 23978 ft | 391 kts | 152° |
| 2026-04-20 19:38 | 19.44365 | -72.81308 | 23762 ft | 389 kts | 152° |
| 2026-04-20 19:38 | 19.42017 | -72.79900 | 23546 ft | 385 kts | 152° |
| 2026-04-20 19:38 | 19.39696 | -72.78506 | 23157 ft | 381 kts | 152° |
| 2026-04-20 19:39 | 19.37396 | -72.77127 | 22760 ft | 378 kts | 152° |
| 2026-04-20 19:39 | 19.35113 | -72.75762 | 22360 ft | 375 kts | 152° |
| 2026-04-20 19:39 | 19.32856 | -72.74415 | 21970 ft | 372 kts | 152° |
| 2026-04-20 19:39 | 19.30612 | -72.73074 | 21576 ft | 369 kts | 152° |
| 2026-04-20 19:40 | 19.28376 | -72.71737 | 21189 ft | 366 kts | 151° |
| 2026-04-20 19:40 | 19.26189 | -72.70430 | 20810 ft | 363 kts | 151° |
| 2026-04-20 19:40 | 19.23996 | -72.69119 | 20344 ft | 362 kts | 151° |
| 2026-04-20 19:40 | 19.21801 | -72.67841 | 20049 ft | 357 kts | 151° |
| 2026-04-20 19:41 | 19.19638 | -72.66554 | 19654 ft | 356 kts | 151° |
| 2026-04-20 19:41 | 19.17491 | -72.65262 | 19274 ft | 354 kts | 150° |
| 2026-04-20 19:41 | 19.15356 | -72.63978 | 18894 ft | 352 kts | 150° |
| 2026-04-20 19:41 | 19.13227 | -72.62702 | 18515 ft | 351 kts | 150° |
| 2026-04-20 19:42 | 19.11105 | -72.61432 | 18097 ft | 350 kts | 150° |
| 2026-04-20 19:42 | 19.09114 | -72.59969 | 17714 ft | 347 kts | 138° |
| 2026-04-20 19:42 | 19.07469 | -72.58135 | 17336 ft | 343 kts | 127° |
| 2026-04-20 19:42 | 19.05990 | -72.56170 | 16960 ft | 340 kts | 131° |
| 2026-04-20 19:43 | 19.04151 | -72.54639 | 16597 ft | 337 kts | 154° |
| 2026-04-20 19:43 | 19.01926 | -72.53974 | 16213 ft | 333 kts | 175° |
| 2026-04-20 19:43 | 18.99615 | -72.53833 | 15802 ft | 332 kts | 179° |
| 2026-04-20 19:43 | 18.97311 | -72.53746 | 15415 ft | 332 kts | 179° |
| 2026-04-20 19:44 | 18.95005 | -72.53663 | 15061 ft | 329 kts | 179° |
| 2026-04-20 19:44 | 18.92723 | -72.53587 | 14741 ft | 326 kts | 179° |
| 2026-04-20 19:44 | 18.90469 | -72.53518 | 14397 ft | 324 kts | 179° |
| 2026-04-20 19:44 | 18.88224 | -72.53444 | 14049 ft | 322 kts | 179° |
| 2026-04-20 19:45 | 18.85993 | -72.53367 | 13685 ft | 320 kts | 179° |
| 2026-04-20 19:45 | 18.83773 | -72.53294 | 13308 ft | 318 kts | 179° |
| 2026-04-20 19:45 | 18.81572 | -72.53232 | 12955 ft | 315 kts | 179° |
| 2026-04-20 19:45 | 18.79406 | -72.53170 | 12571 ft | 314 kts | 179° |
| 2026-04-20 19:46 | 18.77227 | -72.53108 | 12199 ft | 313 kts | 179° |
| 2026-04-20 19:46 | 18.75059 | -72.53054 | 11857 ft | 310 kts | 179° |
| 2026-04-20 19:46 | 18.72907 | -72.53006 | 11514 ft | 308 kts | 179° |
| 2026-04-20 19:46 | 18.70787 | -72.52805 | 11158 ft | 306 kts | 164° |
| 2026-04-20 19:47 | 18.68919 | -72.51784 | 10837 ft | 303 kts | 139° |
| 2026-04-20 19:47 | 18.67660 | -72.50046 | 10500 ft | 299 kts | 112° |
| 2026-04-20 19:47 | 18.67246 | -72.47934 | 10178 ft | 294 kts | 86° |
| 2026-04-20 19:47 | 18.67766 | -72.45881 | 9991 ft | 291 kts | 59° |
| 2026-04-20 19:48 | 18.68959 | -72.44160 | 9989 ft | 292 kts | 50° |
| 2026-04-20 19:48 | 18.70259 | -72.42509 | 9997 ft | 293 kts | 49° |
| 2026-04-20 19:48 | 18.71568 | -72.40868 | 10001 ft | 293 kts | 49° |
| 2026-04-20 19:48 | 18.72887 | -72.39221 | 10000 ft | 293 kts | 49° |
| 2026-04-20 19:49 | 18.74205 | -72.37583 | 9995 ft | 293 kts | 49° |
| 2026-04-20 19:49 | 18.75524 | -72.35940 | 9998 ft | 293 kts | 49° |
| 2026-04-20 19:49 | 18.76842 | -72.34304 | 9997 ft | 293 kts | 49° |
| 2026-04-20 19:49 | 18.78162 | -72.32664 | 9992 ft | 293 kts | 49° |
| 2026-04-20 19:50 | 18.79485 | -72.31024 | 9998 ft | 293 kts | 49° |
| 2026-04-20 19:50 | 18.80805 | -72.29390 | 9989 ft | 293 kts | 49° |
| 2026-04-20 19:50 | 18.82128 | -72.27749 | 9994 ft | 293 kts | 49° |
| 2026-04-20 19:50 | 18.83450 | -72.26114 | 9993 ft | 293 kts | 49° |
| 2026-04-20 19:51 | 18.84769 | -72.24479 | 9985 ft | 293 kts | 49° |
| 2026-04-20 19:51 | 18.86089 | -72.22845 | 9762 ft | 291 kts | 49° |
| 2026-04-20 19:51 | 18.87401 | -72.21220 | 9408 ft | 290 kts | 49° |
| 2026-04-20 19:51 | 18.88711 | -72.19608 | 9039 ft | 289 kts | 49° |
| 2026-04-20 19:52 | 18.90019 | -72.18005 | 8697 ft | 288 kts | 49° |
| 2026-04-20 19:52 | 18.91296 | -72.16382 | 8342 ft | 286 kts | 56° |
| 2026-04-20 19:52 | 18.92001 | -72.14469 | 8014 ft | 284 kts | 84° |
| 2026-04-20 19:52 | 18.91767 | -72.12395 | 7976 ft | 285 kts | 112° |
| 2026-04-20 19:53 | 18.90661 | -72.10674 | 7979 ft | 285 kts | 139° |
| 2026-04-20 19:53 | 18.88940 | -72.09668 | 7979 ft | 286 kts | 165° |
| 2026-04-20 19:53 | 18.86970 | -72.09590 | 7981 ft | 286 kts | 192° |
| 2026-04-20 19:53 | 18.85176 | -72.10461 | 7978 ft | 286 kts | 219° |
| 2026-04-20 19:54 | 18.83765 | -72.11945 | 7975 ft | 287 kts | 228° |
| 2026-04-20 19:54 | 18.82437 | -72.13520 | 7977 ft | 287 kts | 229° |
| 2026-04-20 19:54 | 18.81137 | -72.15081 | 7979 ft | 287 kts | 229° |
| 2026-04-20 19:54 | 18.79803 | -72.16692 | 7977 ft | 287 kts | 229° |
| 2026-04-20 19:55 | 18.78504 | -72.18262 | 7983 ft | 287 kts | 229° |
| 2026-04-20 19:55 | 18.76953 | -72.19555 | 7993 ft | 287 kts | 202° |
| 2026-04-20 19:55 | 18.75000 | -72.19796 | 7995 ft | 286 kts | 168° |
| 2026-04-20 19:55 | 18.73239 | -72.18886 | 7912 ft | 285 kts | 136° |
| 2026-04-20 19:56 | 18.72456 | -72.17758 | 7822 ft | 284 kts | 113° |
| 2026-04-20 19:56 | 18.72219 | -72.15068 | 7663 ft | 283 kts | 76° |
| 2026-04-20 19:56 | 18.73111 | -72.13237 | 7544 ft | 283 kts | 50° |
| 2026-04-20 19:56 | 18.74308 | -72.11594 | 7411 ft | 284 kts | 63° |
| 2026-04-20 19:57 | 18.74765 | -72.09600 | 7290 ft | 282 kts | 91° |
| 2026-04-20 19:57 | 18.74388 | -72.07582 | 7174 ft | 281 kts | 114° |
| 2026-04-20 19:57 | 18.73314 | -72.05876 | 7054 ft | 280 kts | 136° |
| 2026-04-20 19:57 | 18.71723 | -72.04714 | 6938 ft | 279 kts | 153° |
| 2026-04-20 19:58 | 18.70039 | -72.03808 | 6817 ft | 264 kts | 153° |
| 2026-04-20 19:58 | 18.68457 | -72.02956 | 6700 ft | 245 kts | 153° |
| 2026-04-20 19:58 | 18.66991 | -72.02165 | 6574 ft | 228 kts | 153° |
| 2026-04-20 19:58 | 18.65627 | -72.01432 | 6458 ft | 212 kts | 153° |
| 2026-04-20 19:59 | 18.64347 | -72.00743 | 6391 ft | 207 kts | 153° |
| 2026-04-20 19:59 | 18.63065 | -72.00053 | 6262 ft | 206 kts | 153° |
| 2026-04-20 19:59 | 18.61792 | -71.99365 | 6138 ft | 205 kts | 153° |
| 2026-04-20 19:59 | 18.60442 | -71.98916 | 6011 ft | 204 kts | 174° |
| 2026-04-20 20:00 | 18.59036 | -71.99050 | 5877 ft | 204 kts | 195° |
| 2026-04-20 20:00 | 18.57680 | -71.99492 | 5763 ft | 204 kts | 196° |
| 2026-04-20 20:00 | 18.56376 | -72.00073 | 5555 ft | 206 kts | 220° |
| 2026-04-20 20:00 | 18.55655 | -72.01339 | 5296 ft | 205 kts | 259° |
| 2026-04-20 20:01 | 18.55822 | -72.02806 | 5041 ft | 204 kts | 288° |
| 2026-04-20 20:01 | 18.56256 | -72.04233 | 4738 ft | 204 kts | 288° |
| 2026-04-20 20:01 | 18.56673 | -72.05650 | 4447 ft | 202 kts | 287° |
| 2026-04-20 20:01 | 18.57084 | -72.07063 | 4169 ft | 202 kts | 287° |
| 2026-04-20 20:02 | 18.57492 | -72.08479 | 3917 ft | 202 kts | 287° |
| 2026-04-20 20:02 | 18.57894 | -72.09876 | 3647 ft | 202 kts | 287° |
| 2026-04-20 20:02 | 18.58302 | -72.11296 | 3340 ft | 202 kts | 287° |
| 2026-04-20 20:02 | 18.58696 | -72.12702 | 2941 ft | 197 kts | 283° |
| 2026-04-20 20:03 | 18.58764 | -72.14066 | 2754 ft | 175 kts | 266° |
| 2026-04-20 20:03 | 18.58698 | -72.15275 | 2510 ft | 155 kts | 267° |
| 2026-04-20 20:03 | 18.58645 | -72.16360 | 2301 ft | 144 kts | 267° |
| 2026-04-20 20:03 | 18.58593 | -72.17397 | 2119 ft | 140 kts | 267° |
| 2026-04-20 20:04 | 18.58542 | -72.18414 | 1936 ft | 138 kts | 267° |
| 2026-04-20 20:04 | 18.58492 | -72.19427 | 1777 ft | 138 kts | 267° |
| 2026-04-20 20:04 | 18.58441 | -72.20431 | 1590 ft | 137 kts | 267° |
| 2026-04-20 20:04 | 18.58391 | -72.21432 | 1403 ft | 137 kts | 267° |
| 2026-04-20 20:05 | 18.58342 | -72.22432 | 1217 ft | 136 kts | 267° |
| 2026-04-20 20:05 | 18.58293 | -72.23427 | 1035 ft | 136 kts | 267° |
| 2026-04-20 20:05 | 18.58246 | -72.24419 | 864 ft | 136 kts | 267° |
| 2026-04-20 20:05 | 18.58192 | -72.25403 | 660 ft | 133 kts | 267° |
| 2026-04-20 20:06 | 18.58139 | -72.26373 | 429 ft | 131 kts | 268° |
| 2026-04-20 20:06 | 18.58098 | -72.27324 | 243 ft | 129 kts | 269° |
| 2026-04-20 20:06 | 18.58069 | -72.27945 | 133 ft | 126 kts | 269° |
| 2026-04-20 20:06 | 18.58037 | -72.28692 | 107 ft | 69 kts | 268° |
| 2026-04-20 20:07 | 18.58014 | -72.29144 | 98 ft | 62 kts | 266° |
| 2026-04-20 20:07 | 18.57893 | -72.29462 | 95 ft | 23 kts | 166° |
| 2026-04-20 20:07 | 18.57782 | -72.29460 | 95 ft | 24 kts | 178° |
| 2026-04-20 20:07 | 18.57693 | -72.29431 | 96 ft | 12 kts | 138° |
| 2026-04-20 20:08 | 18.57622 | -72.29387 | 96 ft | 12 kts | 169° |
| 2026-04-20 20:08 | 18.57611 | -72.29387 | 98 ft | 0 kts | 180° |
| 2026-04-20 20:09 | 18.57612 | -72.29386 | 936 ft | 1 kts | 326° |